Главная страница
METAR-TAF:

METAR-TAF

Аэропорты :

Йёнчёпинг, Швеция

широта: 57-46N, долгота: 014-05E, высота над уровнем моря: 226 м

Текущие метеонаблюдения

Эта сводка был подготовлена 24 минут назад, в 14:20 UTC
Ветер 10 Узел от восточно-северо-восточный
Температура 5°C
Влажность 93%
Давление 1018 hPa
Видимость 10 км и более
Отдельные облака на высоте 1200 фута
Рассеянная облачность на высоте 3300 фута

METAR: ESGJ 151420Z 06010KT 9999 SCT012 BKN033 05/04 Q1018

Время: 15:44 (14:44 UTC)

Прогноз

Эта сводка был подготовлена 14 минут назад, в 14:30 UTC
Прогноз действительный с 15-го 15 UTC до 15-го 21 UTC
Ветер 12 Узел от восточный
Видимость 10 км и более
Отдельные облака на высоте 1500 фута
Рассеянная облачность на высоте 3000 фута
Вероятность 40%
С 15-го 15 UTC до 15-го 19 UTC
Рассеянная облачность на высоте 700 фута
изменения
С 15-го 19 UTC до 15-го 21 UTC
Рассеянная облачность на высоте 400 фута

TAF: ESGJ 151430Z 1515/1521 08012KT 9999 SCT015 BKN030 PROB40 1515/1519 BKN007 BECMG 1519/1521 BKN004

Метеонаблюдения и прогнозы для более 4000 аэропортов (сводки METAR и TAF).

Имеющиеся станции представлены на карте желтыми и красными точками.

Чтобы увидеть название станции, наведите на нее мышь.

Затем щелкните, чтобы увидеть метеонаблюдения и метеопрогнозы.

Управление картой: чтобы увеличить масштаб, щелкните зеленые кнопки с черным крестиком; чтобы уменьшить масштаб, щелкните зеленую кнопку с тире; для просмотра соседних карт щелкайте зеленые стрелки.


METAR-TAF: